sensor_id;sensor_type;location;lat;lon;timestamp;P1;durP1;ratioP1;P2;durP2;ratioP2
83340;SDS011;73263;50.882;5.984;2023-12-20T16:02:04;4.45;;;1.27;;
83340;SDS011;73263;50.882;5.984;2023-12-20T16:04:29;3.37;;;1.30;;
83340;SDS011;73263;50.882;5.984;2023-12-20T16:06:55;5.17;;;1.30;;
83340;SDS011;73263;50.882;5.984;2023-12-20T16:09:20;4.30;;;1.47;;
83340;SDS011;73263;50.882;5.984;2023-12-20T16:11:45;7.00;;;1.57;;
83340;SDS011;73263;50.882;5.984;2023-12-20T16:14:11;3.77;;;1.40;;
83340;SDS011;73263;50.882;5.984;2023-12-20T16:16:42;3.85;;;1.40;;
83340;SDS011;73263;50.882;5.984;2023-12-20T16:19:08;6.03;;;1.47;;
83340;SDS011;73263;50.882;5.984;2023-12-20T16:21:34;7.28;;;1.83;;
83340;SDS011;73263;50.882;5.984;2023-12-20T16:23:59;4.63;;;1.30;;
83340;SDS011;73263;50.882;5.984;2023-12-20T16:26:24;4.47;;;1.63;;
83340;SDS011;73263;50.882;5.984;2023-12-20T16:28:50;6.17;;;1.43;;
83340;SDS011;73263;50.882;5.984;2023-12-20T16:31:15;5.03;;;1.50;;
83340;SDS011;73263;50.882;5.984;2023-12-20T16:33:40;5.60;;;1.40;;
83340;SDS011;73263;50.882;5.984;2023-12-20T16:36:06;4.97;;;1.60;;
83340;SDS011;73263;50.882;5.984;2023-12-20T16:38:32;5.73;;;1.70;;
83340;SDS011;73263;50.882;5.984;2023-12-20T16:40:57;4.67;;;1.47;;
83340;SDS011;73263;50.882;5.984;2023-12-20T16:43:23;4.80;;;1.43;;
83340;SDS011;73263;50.882;5.984;2023-12-20T16:47:29;27.17;;;6.00;;
83340;SDS011;73263;50.882;5.984;2023-12-20T16:49:54;7.07;;;2.30;;
83340;SDS011;73263;50.882;5.984;2023-12-20T16:52:20;6.83;;;2.30;;
83340;SDS011;73263;50.882;5.984;2023-12-20T16:54:45;12.77;;;4.60;;
83340;SDS011;73263;50.882;5.984;2023-12-20T16:57:10;7.87;;;3.23;;
83340;SDS011;73263;50.882;5.984;2023-12-20T16:59:36;6.67;;;2.07;;
83340;SDS011;73263;50.882;5.984;2023-12-20T17:02:02;8.82;;;2.50;;
83340;SDS011;73263;50.882;5.984;2023-12-20T17:04:29;13.57;;;5.38;;
83340;SDS011;73263;50.882;5.984;2023-12-20T17:06:57;19.33;;;10.23;;
83340;SDS011;73263;50.882;5.984;2023-12-20T17:09:22;38.17;;;19.00;;
83340;SDS011;73263;50.882;5.984;2023-12-20T17:11:48;38.13;;;17.33;;
83340;SDS011;73263;50.882;5.984;2023-12-20T17:14:13;24.57;;;13.80;;
83340;SDS011;73263;50.882;5.984;2023-12-20T17:16:39;28.40;;;13.73;;
83340;SDS011;73263;50.882;5.984;2023-12-20T17:19:04;25.37;;;13.77;;
83340;SDS011;73263;50.882;5.984;2023-12-20T17:21:30;26.60;;;14.10;;
83340;SDS011;73263;50.882;5.984;2023-12-20T17:23:55;31.35;;;14.68;;
83340;SDS011;73263;50.882;5.984;2023-12-20T17:26:21;27.43;;;12.93;;
83340;SDS011;73263;50.882;5.984;2023-12-20T17:28:46;27.77;;;14.33;;
83340;SDS011;73263;50.882;5.984;2023-12-20T17:31:12;26.00;;;13.70;;
83340;SDS011;73263;50.882;5.984;2023-12-20T17:33:37;25.27;;;13.20;;
83340;SDS011;73263;50.882;5.984;2023-12-20T17:36:03;26.47;;;12.77;;
83340;SDS011;73263;50.882;5.984;2023-12-20T17:38:28;30.03;;;13.60;;
83340;SDS011;73263;50.882;5.984;2023-12-20T17:40:54;28.33;;;13.80;;
83340;SDS011;73263;50.882;5.984;2023-12-20T17:43:19;22.52;;;11.80;;
83340;SDS011;73263;50.882;5.984;2023-12-20T17:45:45;25.27;;;12.30;;
83340;SDS011;73263;50.882;5.984;2023-12-20T17:48:10;21.73;;;11.67;;
83340;SDS011;73263;50.882;5.984;2023-12-20T17:50:35;23.80;;;11.77;;
83340;SDS011;73263;50.882;5.984;2023-12-20T17:53:01;24.80;;;11.50;;
83340;SDS011;73263;50.882;5.984;2023-12-20T17:55:26;23.50;;;12.07;;
83340;SDS011;73263;50.882;5.984;2023-12-20T17:57:52;23.02;;;11.75;;
83340;SDS011;73263;50.882;5.984;2023-12-20T18:00:18;21.77;;;11.50;;
83340;SDS011;73263;50.882;5.984;2023-12-20T18:02:45;19.75;;;10.52;;
83340;SDS011;73263;50.882;5.984;2023-12-20T18:05:11;21.13;;;11.97;;
83340;SDS011;73263;50.882;5.984;2023-12-20T18:07:37;21.88;;;10.77;;
83340;SDS011;73263;50.882;5.984;2023-12-20T18:10:03;24.13;;;11.02;;
83340;SDS011;73263;50.882;5.984;2023-12-20T18:12:29;19.10;;;10.38;;
83340;SDS011;73263;50.882;5.984;2023-12-20T18:14:55;20.43;;;10.23;;
83340;SDS011;73263;50.882;5.984;2023-12-20T18:17:20;18.90;;;9.83;;
83340;SDS011;73263;50.882;5.984;2023-12-20T18:19:46;16.93;;;8.53;;
83340;SDS011;73263;50.882;5.984;2023-12-20T18:22:12;16.65;;;8.15;;
83340;SDS011;73263;50.882;5.984;2023-12-20T18:24:37;17.30;;;7.90;;
83340;SDS011;73263;50.882;5.984;2023-12-20T18:27:03;17.67;;;7.87;;
83340;SDS011;73263;50.882;5.984;2023-12-20T18:29:28;21.77;;;7.97;;
83340;SDS011;73263;50.882;5.984;2023-12-20T18:31:54;16.77;;;7.47;;
83340;SDS011;73263;50.882;5.984;2023-12-20T18:34:19;20.60;;;8.00;;
83340;SDS011;73263;50.882;5.984;2023-12-20T18:36:45;22.80;;;7.88;;
83340;SDS011;73263;50.882;5.984;2023-12-20T18:39:10;18.03;;;7.50;;
83340;SDS011;73263;50.882;5.984;2023-12-20T18:41:36;15.30;;;8.00;;
83340;SDS011;73263;50.882;5.984;2023-12-20T18:44:01;21.10;;;7.72;;
83340;SDS011;73263;50.882;5.984;2023-12-20T18:46:28;23.30;;;7.83;;
83340;SDS011;73263;50.882;5.984;2023-12-20T18:48:54;15.20;;;7.63;;
83340;SDS011;73263;50.882;5.984;2023-12-20T18:51:19;21.57;;;7.53;;
83340;SDS011;73263;50.882;5.984;2023-12-20T18:53:44;22.23;;;7.73;;
83340;SDS011;73263;50.882;5.984;2023-12-20T18:56:10;19.37;;;7.10;;
83340;SDS011;73263;50.882;5.984;2023-12-20T18:58:35;18.00;;;6.93;;
83340;SDS011;73263;50.882;5.984;2023-12-20T19:01:01;18.67;;;7.15;;
83340;SDS011;73263;50.882;5.984;2023-12-20T19:03:27;13.73;;;6.67;;
83340;SDS011;73263;50.882;5.984;2023-12-20T19:05:53;16.38;;;7.13;;
83340;SDS011;73263;50.882;5.984;2023-12-20T19:08:18;19.13;;;7.00;;
83340;SDS011;73263;50.882;5.984;2023-12-20T19:10:44;18.33;;;6.85;;
83340;SDS011;73263;50.882;5.984;2023-12-20T19:13:09;20.67;;;7.03;;
83340;SDS011;73263;50.882;5.984;2023-12-20T19:15:35;17.60;;;6.33;;
83340;SDS011;73263;50.882;5.984;2023-12-20T19:18:01;15.55;;;6.50;;
83340;SDS011;73263;50.882;5.984;2023-12-20T19:20:26;17.43;;;6.13;;
83340;SDS011;73263;50.882;5.984;2023-12-20T19:22:52;19.63;;;6.50;;
83340;SDS011;73263;50.882;5.984;2023-12-20T19:25:17;13.73;;;5.80;;
83340;SDS011;73263;50.882;5.984;2023-12-20T19:27:42;17.70;;;5.80;;
83340;SDS011;73263;50.882;5.984;2023-12-20T19:30:08;14.23;;;5.65;;
83340;SDS011;73263;50.882;5.984;2023-12-20T19:32:34;16.07;;;5.63;;
83340;SDS011;73263;50.882;5.984;2023-12-20T19:34:59;16.13;;;5.07;;
83340;SDS011;73263;50.882;5.984;2023-12-20T19:37:25;19.30;;;5.70;;
83340;SDS011;73263;50.882;5.984;2023-12-20T19:39:50;15.13;;;5.40;;
83340;SDS011;73263;50.882;5.984;2023-12-20T19:42:16;15.87;;;5.03;;
83340;SDS011;73263;50.882;5.984;2023-12-20T19:44:41;15.95;;;5.15;;
83340;SDS011;73263;50.882;5.984;2023-12-20T19:47:07;17.93;;;5.27;;
83340;SDS011;73263;50.882;5.984;2023-12-20T19:49:32;13.57;;;4.77;;
83340;SDS011;73263;50.882;5.984;2023-12-20T19:51:57;15.52;;;4.70;;
83340;SDS011;73263;50.882;5.984;2023-12-20T19:54:24;11.47;;;4.13;;
83340;SDS011;73263;50.882;5.984;2023-12-20T19:56:49;12.95;;;4.57;;
83340;SDS011;73263;50.882;5.984;2023-12-20T19:59:15;11.10;;;4.13;;
83340;SDS011;73263;50.882;5.984;2023-12-20T20:01:40;15.13;;;4.73;;
83340;SDS011;73263;50.882;5.984;2023-12-20T20:04:07;11.25;;;3.72;;
83340;SDS011;73263;50.882;5.984;2023-12-20T20:06:33;12.43;;;3.78;;
83340;SDS011;73263;50.882;5.984;2023-12-20T20:08:59;11.20;;;3.63;;
83340;SDS011;73263;50.882;5.984;2023-12-20T20:11:25;12.27;;;3.90;;
83340;SDS011;73263;50.882;5.984;2023-12-20T20:13:50;12.03;;;3.80;;
83340;SDS011;73263;50.882;5.984;2023-12-20T20:16:17;11.38;;;3.80;;
83340;SDS011;73263;50.882;5.984;2023-12-20T20:18:42;11.33;;;3.57;;
83340;SDS011;73263;50.882;5.984;2023-12-20T20:21:08;10.63;;;3.50;;
83340;SDS011;73263;50.882;5.984;2023-12-20T20:23:33;11.47;;;3.50;;
83340;SDS011;73263;50.882;5.984;2023-12-20T20:25:59;12.55;;;3.58;;
83340;SDS011;73263;50.882;5.984;2023-12-20T20:28:24;11.73;;;3.33;;
83340;SDS011;73263;50.882;5.984;2023-12-20T20:30:53;9.43;;;3.42;;
83340;SDS011;73263;50.882;5.984;2023-12-20T20:33:21;8.97;;;3.03;;
83340;SDS011;73263;50.882;5.984;2023-12-20T20:35:47;11.90;;;3.22;;
83340;SDS011;73263;50.882;5.984;2023-12-20T20:38:12;9.50;;;3.40;;
83340;SDS011;73263;50.882;5.984;2023-12-20T20:40:38;8.95;;;3.10;;
83340;SDS011;73263;50.882;5.984;2023-12-20T20:43:04;10.20;;;3.03;;
83340;SDS011;73263;50.882;5.984;2023-12-20T20:45:29;8.93;;;2.97;;
83340;SDS011;73263;50.882;5.984;2023-12-20T20:47:55;9.67;;;3.07;;
83340;SDS011;73263;50.882;5.984;2023-12-20T20:50:20;9.10;;;2.83;;
83340;SDS011;73263;50.882;5.984;2023-12-20T20:52:46;7.10;;;2.40;;
83340;SDS011;73263;50.882;5.984;2023-12-20T20:55:12;8.20;;;2.80;;
83340;SDS011;73263;50.882;5.984;2023-12-20T20:57:38;9.00;;;2.63;;
83340;SDS011;73263;50.882;5.984;2023-12-20T21:00:03;7.53;;;2.40;;
83340;SDS011;73263;50.882;5.984;2023-12-20T21:02:30;7.70;;;2.55;;
83340;SDS011;73263;50.882;5.984;2023-12-20T21:04:56;10.77;;;2.70;;
83340;SDS011;73263;50.882;5.984;2023-12-20T21:07:24;8.47;;;2.70;;
83340;SDS011;73263;50.882;5.984;2023-12-20T21:09:49;9.93;;;2.70;;
83340;SDS011;73263;50.882;5.984;2023-12-20T21:12:15;5.80;;;2.50;;
83340;SDS011;73263;50.882;5.984;2023-12-20T21:14:41;6.63;;;2.23;;
83340;SDS011;73263;50.882;5.984;2023-12-20T21:17:06;8.23;;;2.45;;
83340;SDS011;73263;50.882;5.984;2023-12-20T21:19:32;8.17;;;2.50;;
83340;SDS011;73263;50.882;5.984;2023-12-20T21:21:57;7.97;;;2.40;;
83340;SDS011;73263;50.882;5.984;2023-12-20T21:24:23;11.77;;;3.20;;
83340;SDS011;73263;50.882;5.984;2023-12-20T21:26:48;6.80;;;2.20;;
83340;SDS011;73263;50.882;5.984;2023-12-20T21:29:13;8.73;;;2.57;;
83340;SDS011;73263;50.882;5.984;2023-12-20T21:31:39;7.10;;;2.27;;
83340;SDS011;73263;50.882;5.984;2023-12-20T21:34:04;5.60;;;2.23;;
83340;SDS011;73263;50.882;5.984;2023-12-20T21:36:30;6.32;;;2.03;;
83340;SDS011;73263;50.882;5.984;2023-12-20T21:38:56;6.63;;;1.93;;
83340;SDS011;73263;50.882;5.984;2023-12-20T21:41:21;8.48;;;2.20;;
83340;SDS011;73263;50.882;5.984;2023-12-20T21:43:46;5.70;;;1.90;;
83340;SDS011;73263;50.882;5.984;2023-12-20T21:46:12;7.97;;;2.40;;
83340;SDS011;73263;50.882;5.984;2023-12-20T21:48:38;6.50;;;2.20;;
83340;SDS011;73263;50.882;5.984;2023-12-20T21:51:03;7.20;;;1.87;;
83340;SDS011;73263;50.882;5.984;2023-12-20T21:53:29;6.75;;;2.20;;
83340;SDS011;73263;50.882;5.984;2023-12-20T21:55:55;6.47;;;2.30;;
83340;SDS011;73263;50.882;5.984;2023-12-20T21:58:20;6.27;;;1.83;;
83340;SDS011;73263;50.882;5.984;2023-12-20T22:00:45;5.10;;;1.87;;
83340;SDS011;73263;50.882;5.984;2023-12-20T22:03:11;5.83;;;1.80;;
83340;SDS011;73263;50.882;5.984;2023-12-20T22:05:39;5.43;;;1.87;;
83340;SDS011;73263;50.882;5.984;2023-12-20T22:08:05;7.95;;;2.03;;
83340;SDS011;73263;50.882;5.984;2023-12-20T22:10:31;5.43;;;1.70;;
83340;SDS011;73263;50.882;5.984;2023-12-20T22:12:57;5.37;;;1.87;;
83340;SDS011;73263;50.882;5.984;2023-12-20T22:15:22;8.73;;;2.30;;
83340;SDS011;73263;50.882;5.984;2023-12-20T22:17:48;6.97;;;1.77;;
83340;SDS011;73263;50.882;5.984;2023-12-20T22:20:13;6.05;;;1.60;;
83340;SDS011;73263;50.882;5.984;2023-12-20T22:22:39;5.70;;;1.93;;
83340;SDS011;73263;50.882;5.984;2023-12-20T22:25:05;5.63;;;1.70;;
83340;SDS011;73263;50.882;5.984;2023-12-20T22:27:30;7.22;;;2.40;;
83340;SDS011;73263;50.882;5.984;2023-12-20T22:29:55;4.10;;;1.63;;
83340;SDS011;73263;50.882;5.984;2023-12-20T22:32:21;5.67;;;1.90;;
83340;SDS011;73263;50.882;5.984;2023-12-20T22:34:46;6.78;;;1.90;;
83340;SDS011;73263;50.882;5.984;2023-12-20T22:37:13;5.87;;;1.63;;
83340;SDS011;73263;50.882;5.984;2023-12-20T22:39:38;5.00;;;1.65;;
83340;SDS011;73263;50.882;5.984;2023-12-20T22:42:04;4.93;;;1.70;;
83340;SDS011;73263;50.882;5.984;2023-12-20T22:44:29;4.90;;;1.53;;
83340;SDS011;73263;50.882;5.984;2023-12-20T22:46:55;6.53;;;1.70;;
83340;SDS011;73263;50.882;5.984;2023-12-20T22:49:20;4.27;;;1.50;;
83340;SDS011;73263;50.882;5.984;2023-12-20T22:51:45;5.93;;;1.83;;
83340;SDS011;73263;50.882;5.984;2023-12-20T22:54:11;5.07;;;1.70;;
83340;SDS011;73263;50.882;5.984;2023-12-20T22:56:36;5.20;;;1.60;;
83340;SDS011;73263;50.882;5.984;2023-12-20T22:59:01;5.00;;;1.90;;
83340;SDS011;73263;50.882;5.984;2023-12-20T23:01:27;5.27;;;1.63;;
83340;SDS011;73263;50.882;5.984;2023-12-20T23:03:52;4.07;;;1.35;;
83340;SDS011;73263;50.882;5.984;2023-12-20T23:06:18;3.03;;;1.23;;
83340;SDS011;73263;50.882;5.984;2023-12-20T23:08:43;3.33;;;1.30;;
83340;SDS011;73263;50.882;5.984;2023-12-20T23:11:09;4.43;;;1.50;;
83340;SDS011;73263;50.882;5.984;2023-12-20T23:13:34;5.00;;;1.37;;
83340;SDS011;73263;50.882;5.984;2023-12-20T23:15:59;3.90;;;1.20;;
83340;SDS011;73263;50.882;5.984;2023-12-20T23:18:25;5.40;;;1.53;;
83340;SDS011;73263;50.882;5.984;2023-12-20T23:20:50;4.30;;;1.50;;
83340;SDS011;73263;50.882;5.984;2023-12-20T23:23:15;3.30;;;1.40;;
83340;SDS011;73263;50.882;5.984;2023-12-20T23:25:41;5.93;;;1.30;;
83340;SDS011;73263;50.882;5.984;2023-12-20T23:28:06;4.18;;;1.40;;
83340;SDS011;73263;50.882;5.984;2023-12-20T23:30:32;4.03;;;1.40;;
83340;SDS011;73263;50.882;5.984;2023-12-20T23:32:57;4.73;;;1.47;;
83340;SDS011;73263;50.882;5.984;2023-12-20T23:35:23;6.70;;;1.48;;
83340;SDS011;73263;50.882;5.984;2023-12-20T23:37:48;4.73;;;1.40;;
83340;SDS011;73263;50.882;5.984;2023-12-20T23:40:14;5.25;;;1.45;;
83340;SDS011;73263;50.882;5.984;2023-12-20T23:42:39;4.60;;;1.37;;
83340;SDS011;73263;50.882;5.984;2023-12-20T23:45:06;3.77;;;1.60;;
83340;SDS011;73263;50.882;5.984;2023-12-20T23:47:32;5.35;;;1.30;;
83340;SDS011;73263;50.882;5.984;2023-12-20T23:49:57;3.47;;;1.10;;
83340;SDS011;73263;50.882;5.984;2023-12-20T23:52:22;4.53;;;1.40;;
83340;SDS011;73263;50.882;5.984;2023-12-20T23:54:48;3.27;;;1.47;;
83340;SDS011;73263;50.882;5.984;2023-12-20T23:57:14;4.53;;;1.23;;
83340;SDS011;73263;50.882;5.984;2023-12-20T23:59:39;4.75;;;1.20;;
